Time;durP1;ratioP1;P1;durP2;ratioP2;P2;SDS_P1;SDS_P2;PMS_P1;PMS_P2;Temp;Humidity;BMP_temperature;BMP_pressure;BME280_temperature;BME280_humidity;BME280_pressure;Samples;Min_cycle;Max_cycle;Signal;HPM_P1;HPM_P2
2022/05/17 00:00:48;;;;;;;460.00;299.13;;;;;;;;;;5063991;28;20444;-73
2022/05/17 00:03:16;;;;;;;444.53;257.20;;;;;;;;;;5066775;28;20540;-74
2022/05/17 00:05:44;;;;;;;450.83;286.30;;;;;;;;;;5067161;28;20433;-73
2022/05/17 00:08:12;;;;;;;461.07;309.47;;;;;;;;;;5055321;28;20450;-74
2022/05/17 00:10:40;;;;;;;439.83;240.43;;;;;;;;;;5061173;28;20860;-74
2022/05/17 00:13:15;;;;;;;460.43;289.47;;;;;;;;;;5064275;28;20488;-74
2022/05/17 00:15:47;;;;;;;453.83;262.17;;;;;;;;;;5062634;28;20448;-74
2022/05/17 00:18:19;;;;;;;461.90;284.07;;;;;;;;;;5075365;28;20468;-73
2022/05/17 00:20:50;;;;;;;464.37;302.07;;;;;;;;;;5058523;28;20461;-74
2022/05/17 00:23:21;;;;;;;460.77;285.63;;;;;;;;;;5058604;28;20522;-74
2022/05/17 00:25:49;;;;;;;453.87;269.50;;;;;;;;;;5067156;28;20467;-74
2022/05/17 00:28:21;;;;;;;463.63;320.57;;;;;;;;;;5065560;28;20441;-73
2022/05/17 00:30:52;;;;;;;467.07;310.10;;;;;;;;;;5067162;28;20458;-73
2022/05/17 00:33:21;;;;;;;460.10;295.57;;;;;;;;;;5054907;28;20602;-72
2022/05/17 00:35:52;;;;;;;466.97;318.47;;;;;;;;;;5061282;28;20479;-74
2022/05/17 00:38:19;;;;;;;467.07;328.10;;;;;;;;;;5065858;28;20521;-73
2022/05/17 00:40:47;;;;;;;470.00;364.37;;;;;;;;;;5074357;28;20494;-74
2022/05/17 00:43:16;;;;;;;458.20;285.47;;;;;;;;;;5064109;28;20464;-74
2022/05/17 00:45:48;;;;;;;463.20;311.97;;;;;;;;;;5058771;28;20452;-74
2022/05/17 00:48:22;;;;;;;460.40;309.40;;;;;;;;;;5066223;28;20460;-74
2022/05/17 00:50:57;;;;;;;450.10;256.17;;;;;;;;;;5062883;28;20485;-74
2022/05/17 00:53:32;;;;;;;462.03;290.57;;;;;;;;;;5073402;28;20468;-73
2022/05/17 00:56:02;;;;;;;461.90;305.83;;;;;;;;;;5066571;28;20547;-72
2022/05/17 00:58:31;;;;;;;459.47;279.20;;;;;;;;;;5056141;28;20449;-73
2022/05/17 01:01:03;;;;;;;473.30;355.87;;;;;;;;;;5065456;28;20543;-73
2022/05/17 01:03:32;;;;;;;467.03;307.60;;;;;;;;;;5072853;28;20451;-72
2022/05/17 01:06:00;;;;;;;456.80;291.57;;;;;;;;;;5059571;28;20511;-74
2022/05/17 01:08:31;;;;;;;457.00;292.47;;;;;;;;;;5063450;28;20779;-73
2022/05/17 01:10:59;;;;;;;465.27;310.03;;;;;;;;;;5065232;28;20494;-73
2022/05/17 01:16:13;;;;;;;460.50;300.80;;;;;;;;;;5061978;28;21039;-73
2022/05/17 01:18:43;;;;;;;460.53;303.93;;;;;;;;;;5073754;28;20486;-73
2022/05/17 01:21:13;;;;;;;462.67;295.43;;;;;;;;;;5062039;28;20450;-71
2022/05/17 01:23:41;;;;;;;457.40;287.00;;;;;;;;;;5076812;28;20490;-73
2022/05/17 01:26:11;;;;;;;455.07;274.87;;;;;;;;;;5077897;28;20876;-73
2022/05/17 01:28:39;;;;;;;465.67;313.23;;;;;;;;;;5065754;28;20893;-73
2022/05/17 01:31:07;;;;;;;451.10;253.37;;;;;;;;;;5058387;28;20773;-73
2022/05/17 01:33:36;;;;;;;456.70;279.07;;;;;;;;;;5074129;28;20468;-72
2022/05/17 01:36:05;;;;;;;465.67;331.93;;;;;;;;;;5065900;28;20558;-73
2022/05/17 01:38:35;;;;;;;474.33;338.83;;;;;;;;;;5058189;28;20445;-72
2022/05/17 01:41:06;;;;;;;459.53;299.40;;;;;;;;;;5061370;28;20526;-73
2022/05/17 01:43:33;;;;;;;457.23;284.40;;;;;;;;;;5058326;28;20457;-73
2022/05/17 01:46:05;;;;;;;459.67;304.33;;;;;;;;;;5059204;28;20461;-73
2022/05/17 01:48:33;;;;;;;465.87;349.17;;;;;;;;;;5066021;28;20461;-72
2022/05/17 01:51:01;;;;;;;463.57;322.33;;;;;;;;;;5061863;28;20559;-71
2022/05/17 01:53:28;;;;;;;461.50;335.47;;;;;;;;;;5062118;28;20529;-73
2022/05/17 01:55:57;;;;;;;464.60;340.07;;;;;;;;;;5074729;28;20463;-73
2022/05/17 01:58:25;;;;;;;461.43;280.03;;;;;;;;;;5072149;28;20444;-73
2022/05/17 02:00:53;;;;;;;463.30;301.10;;;;;;;;;;5066220;28;20464;-73
2022/05/17 02:03:20;;;;;;;457.37;286.70;;;;;;;;;;5065371;28;20457;-73
2022/05/17 02:05:48;;;;;;;464.27;339.43;;;;;;;;;;5074330;28;20510;-73
2022/05/17 02:08:16;;;;;;;449.60;291.17;;;;;;;;;;5065360;28;20493;-72
2022/05/17 02:10:43;;;;;;;463.73;340.13;;;;;;;;;;5065137;28;20721;-73
2022/05/17 02:13:13;;;;;;;458.70;312.63;;;;;;;;;;5058230;28;20463;-72
2022/05/17 02:15:40;;;;;;;462.17;316.63;;;;;;;;;;5064616;28;20682;-72
2022/05/17 02:18:08;;;;;;;448.83;268.57;;;;;;;;;;5061062;28;20955;-73
2022/05/17 02:20:36;;;;;;;465.47;310.63;;;;;;;;;;5068121;28;20448;-74
2022/05/17 02:23:03;;;;;;;452.70;294.57;;;;;;;;;;5067984;28;20495;-73
2022/05/17 02:25:38;;;;;;;448.97;292.03;;;;;;;;;;5057535;28;20749;-72
2022/05/17 02:28:07;;;;;;;444.07;261.83;;;;;;;;;;5058536;28;20453;-72
2022/05/17 02:30:36;;;;;;;460.37;312.37;;;;;;;;;;5068961;28;20522;-73
2022/05/17 02:33:06;;;;;;;444.13;273.53;;;;;;;;;;5066368;28;20453;-71
2022/05/17 02:35:36;;;;;;;450.37;276.90;;;;;;;;;;5065361;28;20812;-73
2022/05/17 02:38:04;;;;;;;453.57;292.17;;;;;;;;;;5071458;28;20729;-71
2022/05/17 02:40:35;;;;;;;446.93;264.83;;;;;;;;;;5065271;28;20449;-72
2022/05/17 02:43:03;;;;;;;446.23;272.00;;;;;;;;;;5056779;28;20461;-72
2022/05/17 02:45:31;;;;;;;454.10;284.50;;;;;;;;;;5065122;28;20442;-72
2022/05/17 02:48:00;;;;;;;447.43;258.17;;;;;;;;;;5057532;28;20461;-72
2022/05/17 02:50:27;;;;;;;448.10;251.63;;;;;;;;;;5057752;28;20941;-72
2022/05/17 02:52:55;;;;;;;446.80;263.07;;;;;;;;;;5068714;28;20480;-73
2022/05/17 02:55:27;;;;;;;453.63;284.23;;;;;;;;;;5059161;28;20823;-72
2022/05/17 02:57:58;;;;;;;446.83;252.53;;;;;;;;;;5070866;28;20574;-73
2022/05/17 03:00:26;;;;;;;447.70;280.47;;;;;;;;;;5072775;28;20488;-72
2022/05/17 03:02:53;;;;;;;444.37;252.40;;;;;;;;;;5056661;28;20468;-72
2022/05/17 03:05:22;;;;;;;448.47;274.60;;;;;;;;;;5064737;28;20866;-72
2022/05/17 03:07:50;;;;;;;447.77;258.70;;;;;;;;;;5068742;28;20464;-72
2022/05/17 03:10:21;;;;;;;447.77;275.63;;;;;;;;;;5060494;28;20461;-72
2022/05/17 03:12:52;;;;;;;444.80;269.33;;;;;;;;;;5055988;28;20523;-72
2022/05/17 03:15:21;;;;;;;456.33;302.37;;;;;;;;;;5064227;28;20477;-72
2022/05/17 03:17:49;;;;;;;446.67;269.23;;;;;;;;;;5056008;28;21227;-71
2022/05/17 03:20:17;;;;;;;447.13;282.37;;;;;;;;;;5056262;28;20457;-72
2022/05/17 03:22:46;;;;;;;440.93;240.90;;;;;;;;;;5055844;28;20453;-72
2022/05/17 03:25:14;;;;;;;445.63;277.37;;;;;;;;;;5063234;28;20556;-72
2022/05/17 03:27:41;;;;;;;445.83;267.23;;;;;;;;;;5055800;28;20453;-71
2022/05/17 03:30:10;;;;;;;444.70;255.17;;;;;;;;;;5056097;28;20538;-73
2022/05/17 03:32:38;;;;;;;445.53;259.03;;;;;;;;;;5055977;28;20542;-72
2022/05/17 03:35:06;;;;;;;442.20;266.47;;;;;;;;;;5056060;28;20580;-72
2022/05/17 03:37:34;;;;;;;450.37;258.60;;;;;;;;;;5056077;28;20457;-71
2022/05/17 03:40:04;;;;;;;461.43;312.10;;;;;;;;;;5063774;28;20472;-72
2022/05/17 03:42:31;;;;;;;454.70;290.07;;;;;;;;;;5063076;28;20522;-72
2022/05/17 03:44:59;;;;;;;448.97;237.83;;;;;;;;;;5073775;28;20767;-73
2022/05/17 03:47:27;;;;;;;460.53;293.10;;;;;;;;;;5075177;28;20491;-72
2022/05/17 03:49:57;;;;;;;457.63;278.90;;;;;;;;;;5072513;28;20755;-72
2022/05/17 03:52:26;;;;;;;459.87;276.23;;;;;;;;;;5055857;28;20476;-71
2022/05/17 03:54:56;;;;;;;450.10;233.17;;;;;;;;;;5055788;28;20588;-72
2022/05/17 03:57:25;;;;;;;456.17;269.67;;;;;;;;;;5062075;28;20453;-72
2022/05/17 03:59:53;;;;;;;458.23;257.23;;;;;;;;;;5065895;28;20437;-72
2022/05/17 04:02:24;;;;;;;477.87;394.87;;;;;;;;;;5068406;28;20449;-72
2022/05/17 04:04:53;;;;;;;478.93;359.37;;;;;;;;;;5063010;28;20939;-72
2022/05/17 04:07:21;;;;;;;461.90;271.60;;;;;;;;;;5055872;28;20461;-72
2022/05/17 04:09:49;;;;;;;470.13;293.67;;;;;;;;;;5075194;28;20448;-72
2022/05/17 04:12:29;;;;;;;470.13;303.23;;;;;;;;;;5073234;28;20907;-71
2022/05/17 04:14:58;;;;;;;466.47;279.57;;;;;;;;;;5074088;28;20472;-72
2022/05/17 04:17:26;;;;;;;461.83;261.93;;;;;;;;;;5074454;28;20459;-73
2022/05/17 04:19:53;;;;;;;451.93;245.97;;;;;;;;;;5073880;28;20463;-73
2022/05/17 04:22:21;;;;;;;461.87;321.13;;;;;;;;;;5074698;28;20460;-73
2022/05/17 04:24:48;;;;;;;465.97;301.30;;;;;;;;;;5073751;28;20471;-73
2022/05/17 04:27:24;;;;;;;455.63;275.30;;;;;;;;;;5072186;28;20449;-72
2022/05/17 04:29:52;;;;;;;460.67;279.20;;;;;;;;;;5073932;28;20448;-73
2022/05/17 04:32:21;;;;;;;464.90;278.13;;;;;;;;;;5073567;28;20535;-72
2022/05/17 04:34:52;;;;;;;439.83;228.90;;;;;;;;;;5072392;28;20495;-73
2022/05/17 04:37:23;;;;;;;449.83;269.43;;;;;;;;;;5073330;28;20514;-73
2022/05/17 04:39:50;;;;;;;453.47;261.67;;;;;;;;;;5073761;28;20448;-72
2022/05/17 04:42:21;;;;;;;458.33;277.97;;;;;;;;;;5073386;28;20482;-73
2022/05/17 04:44:49;;;;;;;453.53;275.37;;;;;;;;;;5073335;28;20453;-72
2022/05/17 04:47:17;;;;;;;448.03;256.03;;;;;;;;;;5073022;28;20955;-72
2022/05/17 04:49:46;;;;;;;440.27;213.10;;;;;;;;;;5073263;28;20518;-72
2022/05/17 04:52:14;;;;;;;446.23;252.20;;;;;;;;;;5073310;28;20467;-72
2022/05/17 04:54:43;;;;;;;449.13;262.87;;;;;;;;;;5073355;28;20537;-73
2022/05/17 04:57:12;;;;;;;446.43;255.27;;;;;;;;;;5070830;28;20753;-72
2022/05/17 04:59:39;;;;;;;441.20;239.60;;;;;;;;;;5071735;28;20458;-72
2022/05/17 05:02:08;;;;;;;444.30;257.67;;;;;;;;;;5082185;28;20453;-74
2022/05/17 05:04:38;;;;;;;450.60;261.23;;;;;;;;;;5072339;28;20764;-72
2022/05/17 05:07:07;;;;;;;449.17;252.63;;;;;;;;;;5071748;28;20530;-73
2022/05/17 05:09:35;;;;;;;450.80;268.10;;;;;;;;;;5072331;28;20596;-72
2022/05/17 05:12:06;;;;;;;453.70;270.33;;;;;;;;;;5072257;28;20460;-73
2022/05/17 05:14:33;;;;;;;457.67;302.73;;;;;;;;;;5068737;28;20472;-72
2022/05/17 05:17:01;;;;;;;451.27;281.00;;;;;;;;;;5071362;28;20463;-73
2022/05/17 05:19:29;;;;;;;447.53;252.13;;;;;;;;;;5069976;28;20897;-73
2022/05/17 05:21:56;;;;;;;443.73;250.93;;;;;;;;;;5071881;28;20453;-73
2022/05/17 05:24:25;;;;;;;444.17;246.60;;;;;;;;;;5072933;28;20455;-74
2022/05/17 05:26:56;;;;;;;443.70;239.43;;;;;;;;;;5073751;28;21100;-73
2022/05/17 05:29:23;;;;;;;434.47;211.73;;;;;;;;;;5073387;28;20441;-72
2022/05/17 05:31:51;;;;;;;433.27;212.67;;;;;;;;;;5072303;28;20502;-73
2022/05/17 05:34:18;;;;;;;441.93;234.17;;;;;;;;;;5070057;28;20579;-73
2022/05/17 05:36:46;;;;;;;453.77;264.10;;;;;;;;;;5070307;28;20542;-74
2022/05/17 05:39:17;;;;;;;445.33;258.63;;;;;;;;;;5069046;28;20669;-73
2022/05/17 05:41:46;;;;;;;451.10;264.53;;;;;;;;;;5071495;28;20448;-72
2022/05/17 05:44:14;;;;;;;445.40;230.00;;;;;;;;;;5070757;28;20582;-74
2022/05/17 05:46:41;;;;;;;448.43;261.23;;;;;;;;;;5063164;28;20456;-73
2022/05/17 05:49:09;;;;;;;440.43;216.80;;;;;;;;;;5064091;28;20933;-74
2022/05/17 05:51:38;;;;;;;447.10;253.83;;;;;;;;;;5054010;28;20511;-73
2022/05/17 05:54:06;;;;;;;441.20;228.53;;;;;;;;;;5052589;28;20666;-73
2022/05/17 05:56:34;;;;;;;447.53;248.07;;;;;;;;;;5050576;28;20546;-74
2022/05/17 05:59:04;;;;;;;447.67;241.03;;;;;;;;;;5053426;28;21175;-73
2022/05/17 06:01:32;;;;;;;455.07;248.07;;;;;;;;;;5053187;28;20536;-73
2022/05/17 06:04:00;;;;;;;449.93;253.37;;;;;;;;;;5060945;28;20463;-72
2022/05/17 06:06:28;;;;;;;450.73;241.57;;;;;;;;;;5073604;28;20444;-73
2022/05/17 06:08:56;;;;;;;442.50;224.93;;;;;;;;;;5076118;28;20452;-73
2022/05/17 06:11:24;;;;;;;448.17;265.80;;;;;;;;;;5076714;28;20869;-73
2022/05/17 06:13:51;;;;;;;446.93;245.17;;;;;;;;;;5077681;28;20460;-73
2022/05/17 06:16:22;;;;;;;435.03;231.67;;;;;;;;;;5067852;28;20485;-74
2022/05/17 06:18:49;;;;;;;451.07;267.03;;;;;;;;;;5061462;28;20481;-72
2022/05/17 06:21:17;;;;;;;451.23;262.80;;;;;;;;;;5067814;28;20813;-72
2022/05/17 06:23:48;;;;;;;465.67;294.97;;;;;;;;;;5065627;28;20449;-73
2022/05/17 06:26:36;;;;;;;466.30;295.40;;;;;;;;;;5063572;28;20532;-72
2022/05/17 06:29:12;;;;;;;455.80;269.13;;;;;;;;;;5065546;28;20477;-73
2022/05/17 06:31:49;;;;;;;462.30;289.40;;;;;;;;;;5056236;28;20528;-74
2022/05/17 06:34:18;;;;;;;464.20;290.77;;;;;;;;;;5055675;28;20461;-73
2022/05/17 06:36:46;;;;;;;469.07;327.90;;;;;;;;;;5067457;28;20503;-72
2022/05/17 06:39:13;;;;;;;463.70;306.40;;;;;;;;;;5067991;28;20551;-72
2022/05/17 06:41:44;;;;;;;462.20;305.77;;;;;;;;;;5061561;28;20485;-73
2022/05/17 06:44:13;;;;;;;453.17;269.60;;;;;;;;;;5055785;28;20971;-73
2022/05/17 06:46:44;;;;;;;445.33;255.37;;;;;;;;;;5063362;28;20722;-72
2022/05/17 06:49:14;;;;;;;444.70;246.63;;;;;;;;;;5055754;28;20465;-73
2022/05/17 06:51:43;;;;;;;449.07;248.13;;;;;;;;;;5065354;28;20441;-72
2022/05/17 06:54:11;;;;;;;457.30;281.30;;;;;;;;;;5061399;28;20750;-74
2022/05/17 06:56:38;;;;;;;454.00;269.70;;;;;;;;;;5064775;28;20586;-73
2022/05/17 06:59:19;;;;;;;466.77;324.43;;;;;;;;;;5066208;28;20453;-72
2022/05/17 07:01:59;;;;;;;463.57;304.60;;;;;;;;;;5056837;28;20866;-73
2022/05/17 07:04:29;;;;;;;466.53;328.97;;;;;;;;;;5062528;28;20563;-73
2022/05/17 07:06:57;;;;;;;456.60;280.43;;;;;;;;;;5071349;28;20759;-73
2022/05/17 07:09:25;;;;;;;458.73;300.70;;;;;;;;;;5060907;28;20448;-72
2022/05/17 07:14:43;;;;;;;465.83;326.67;;;;;;;;;;5032964;28;20446;-73
2022/05/17 07:17:16;;;;;;;465.90;317.67;;;;;;;;;;5064358;28;20485;-72
2022/05/17 07:19:48;;;;;;;462.60;317.07;;;;;;;;;;5054759;28;20885;-72
2022/05/17 07:22:17;;;;;;;465.37;318.43;;;;;;;;;;5055780;28;20457;-73
2022/05/17 07:24:46;;;;;;;473.50;372.20;;;;;;;;;;5054914;28;20456;-72
2022/05/17 07:27:24;;;;;;;465.00;339.33;;;;;;;;;;5058848;28;21039;-73
2022/05/17 07:29:54;;;;;;;465.80;338.33;;;;;;;;;;5058329;28;20468;-73
2022/05/17 07:32:22;;;;;;;466.80;335.47;;;;;;;;;;5063042;28;20771;-72
2022/05/17 07:34:59;;;;;;;471.10;343.33;;;;;;;;;;5055163;28;20446;-72
2022/05/17 07:37:28;;;;;;;464.07;343.53;;;;;;;;;;5060342;28;20487;-73
2022/05/17 07:39:57;;;;;;;469.17;342.90;;;;;;;;;;5059451;28;20909;-72
2022/05/17 07:42:26;;;;;;;477.47;363.47;;;;;;;;;;5057332;28;20459;-73
2022/05/17 07:44:55;;;;;;;475.70;357.40;;;;;;;;;;5073622;28;20907;-71
2022/05/17 07:47:29;;;;;;;471.03;359.03;;;;;;;;;;5056601;28;20966;-71
2022/05/17 07:50:05;;;;;;;462.43;307.00;;;;;;;;;;5066888;28;20461;-70
2022/05/17 07:52:41;;;;;;;470.80;363.10;;;;;;;;;;5060939;28;20475;-71
2022/05/17 07:55:10;;;;;;;478.13;370.80;;;;;;;;;;5055121;28;20437;-72
2022/05/17 07:57:38;;;;;;;468.33;337.87;;;;;;;;;;5058144;28;20459;-72
2022/05/17 08:00:12;;;;;;;477.50;364.27;;;;;;;;;;5078654;28;20460;-73
2022/05/17 08:02:55;;;;;;;472.23;344.87;;;;;;;;;;5053708;28;20509;-72
2022/05/17 08:05:35;;;;;;;479.70;404.30;;;;;;;;;;5061493;28;20963;-71
2022/05/17 08:08:08;;;;;;;474.33;373.73;;;;;;;;;;5054145;28;20453;-72
2022/05/17 08:10:35;;;;;;;478.10;390.90;;;;;;;;;;5063537;28;20564;-71
2022/05/17 08:13:03;;;;;;;479.17;393.07;;;;;;;;;;5053320;28;20531;-71
2022/05/17 08:15:31;;;;;;;466.07;339.67;;;;;;;;;;5061703;28;20456;-72
2022/05/17 08:17:59;;;;;;;486.07;406.87;;;;;;;;;;5057413;28;20450;-72
2022/05/17 08:20:26;;;;;;;470.90;355.00;;;;;;;;;;5054917;28;20603;-70
2022/05/17 08:22:59;;;;;;;477.67;391.27;;;;;;;;;;5062745;28;20915;-71
2022/05/17 08:28:21;;;;;;;477.43;377.10;;;;;;;;;;5059651;28;20440;-71
2022/05/17 08:30:50;;;;;;;476.93;390.77;;;;;;;;;;5055102;28;20456;-73
2022/05/17 08:33:23;;;;;;;471.97;364.97;;;;;;;;;;5059564;28;20480;-71
2022/05/17 08:35:57;;;;;;;485.83;396.10;;;;;;;;;;5064411;28;20483;-72
2022/05/17 08:38:29;;;;;;;481.27;385.33;;;;;;;;;;5057365;28;20946;-71
2022/05/17 08:41:21;;;;;;;471.67;350.73;;;;;;;;;;5072279;28;20449;-70
2022/05/17 08:44:00;;;;;;;477.10;361.40;;;;;;;;;;5055920;28;20476;-72
2022/05/17 08:46:34;;;;;;;479.93;374.77;;;;;;;;;;5072924;28;20724;-71
2022/05/17 08:49:05;;;;;;;481.20;382.17;;;;;;;;;;5068349;28;20833;-71
2022/05/17 08:51:44;;;;;;;479.20;367.93;;;;;;;;;;5063212;28;20473;-72
2022/05/17 08:54:30;;;;;;;482.30;360.33;;;;;;;;;;5059565;28;20514;-71
2022/05/17 08:57:07;;;;;;;481.10;369.27;;;;;;;;;;5052998;28;21065;-72
2022/05/17 08:59:36;;;;;;;482.07;375.70;;;;;;;;;;5052152;28;20544;-71
2022/05/17 09:02:07;;;;;;;467.97;333.30;;;;;;;;;;5052308;28;20732;-71
2022/05/17 09:04:57;;;;;;;473.83;338.47;;;;;;;;;;5067906;28;20462;-72
2022/05/17 09:07:27;;;;;;;470.17;324.77;;;;;;;;;;5066352;28;20452;-71
2022/05/17 09:10:02;;;;;;;473.27;341.73;;;;;;;;;;5064882;28;20532;-72
2022/05/17 09:12:54;;;;;;;469.10;342.40;;;;;;;;;;5057650;28;20895;-72
2022/05/17 09:15:24;;;;;;;458.93;280.57;;;;;;;;;;5036803;28;20490;-71
2022/05/17 09:17:52;;;;;;;462.27;305.60;;;;;;;;;;5052062;28;20507;-72
2022/05/17 09:20:28;;;;;;;458.20;299.80;;;;;;;;;;5056654;28;20445;-72
2022/05/17 09:23:26;;;;;;;457.50;302.80;;;;;;;;;;5060895;28;20539;-73
2022/05/17 09:26:33;;;;;;;463.30;322.27;;;;;;;;;;5049549;28;20452;-72
2022/05/17 09:29:08;;;;;;;462.37;303.77;;;;;;;;;;5048358;28;20756;-73
2022/05/17 09:31:38;;;;;;;467.97;341.87;;;;;;;;;;5057165;28;20441;-72
2022/05/17 09:34:24;;;;;;;460.13;310.27;;;;;;;;;;5052650;28;20568;-72
2022/05/17 09:37:11;;;;;;;472.83;374.73;;;;;;;;;;5054826;28;20769;-73
2022/05/17 09:39:55;;;;;;;462.60;326.60;;;;;;;;;;5055545;28;20472;-71
2022/05/17 09:42:39;;;;;;;465.43;337.77;;;;;;;;;;5053820;28;20472;-73
2022/05/17 09:48:32;;;;;;;466.67;353.77;;;;;;;;;;5059030;28;20447;-71
2022/05/17 09:54:01;;;;;;;466.83;341.77;;;;;;;;;;5072137;28;20538;-71
2022/05/17 09:56:35;;;;;;;472.57;370.73;;;;;;;;;;5077002;28;20483;-71
2022/05/17 09:59:26;;;;;;;473.43;374.77;;;;;;;;;;5073202;28;20480;-72
2022/05/17 10:02:09;;;;;;;459.53;314.63;;;;;;;;;;5059401;28;20472;-71
2022/05/17 10:04:45;;;;;;;478.87;372.00;;;;;;;;;;5068172;28;20989;-71
2022/05/17 10:10:32;;;;;;;472.90;352.70;;;;;;;;;;5063564;28;20846;-71
2022/05/17 10:13:03;;;;;;;481.63;367.17;;;;;;;;;;5058278;28;20562;-71
2022/05/17 10:15:32;;;;;;;479.63;382.33;;;;;;;;;;5070776;28;20444;-72
2022/05/17 10:18:12;;;;;;;486.77;414.33;;;;;;;;;;5054866;28;20547;-71
2022/05/17 10:20:48;;;;;;;489.67;432.70;;;;;;;;;;5065667;28;20924;-72
2022/05/17 10:23:26;;;;;;;478.40;386.27;;;;;;;;;;5074207;28;20504;-72
2022/05/17 10:25:56;;;;;;;491.13;415.87;;;;;;;;;;5070150;28;20488;-72
2022/05/17 10:28:28;;;;;;;476.03;357.57;;;;;;;;;;5065063;28;20453;-72
2022/05/17 10:30:58;;;;;;;483.17;412.30;;;;;;;;;;5056203;28;20461;-72
2022/05/17 10:33:39;;;;;;;486.10;398.93;;;;;;;;;;5058754;28;20534;-71
2022/05/17 10:36:15;;;;;;;476.40;363.53;;;;;;;;;;5054361;28;20785;-72
2022/05/17 10:39:06;;;;;;;483.67;379.73;;;;;;;;;;5055744;28;20460;-72
2022/05/17 10:41:40;;;;;;;483.90;371.07;;;;;;;;;;5057936;28;20905;-72
2022/05/17 10:44:18;;;;;;;487.23;409.87;;;;;;;;;;5062673;28;20914;-72
2022/05/17 10:46:55;;;;;;;477.57;378.43;;;;;;;;;;5057850;28;20464;-72
2022/05/17 10:49:49;;;;;;;469.10;343.40;;;;;;;;;;5069172;28;20463;-73
2022/05/17 10:52:24;;;;;;;470.20;353.17;;;;;;;;;;5064938;28;20453;-72
2022/05/17 10:54:58;;;;;;;481.43;399.90;;;;;;;;;;5060317;28;20928;-71
2022/05/17 10:57:41;;;;;;;468.00;354.77;;;;;;;;;;5063986;28;20481;-71
2022/05/17 11:00:14;;;;;;;477.27;387.17;;;;;;;;;;5061128;28;20502;-74
2022/05/17 11:03:06;;;;;;;;;;;;;;;;;;;;;
2022/05/17 11:05:42;;;;;;;472.27;372.93;;;;;;;;;;5062198;28;20485;-72
2022/05/17 11:08:29;;;;;;;468.77;338.67;;;;;;;;;;5060631;28;20453;-72
2022/05/17 11:11:09;;;;;;;463.17;340.57;;;;;;;;;;5053642;28;20476;-72
2022/05/17 11:13:49;;;;;;;464.17;348.00;;;;;;;;;;5060964;28;20453;-72
2022/05/17 11:16:31;;;;;;;461.87;346.67;;;;;;;;;;5059492;28;20453;-73
2022/05/17 11:19:07;;;;;;;463.40;362.70;;;;;;;;;;5062701;28;20469;-72
2022/05/17 11:21:42;;;;;;;450.27;324.63;;;;;;;;;;5064505;28;20470;-72
2022/05/17 11:24:21;;;;;;;461.23;354.43;;;;;;;;;;5058520;28;20468;-72
2022/05/17 11:27:09;;;;;;;456.60;348.27;;;;;;;;;;5064018;28;20456;-72
2022/05/17 11:29:54;;;;;;;453.83;340.67;;;;;;;;;;5050852;28;20881;-71
2022/05/17 11:32:29;;;;;;;458.57;344.33;;;;;;;;;;5061294;28;21030;-73
2022/05/17 11:34:58;;;;;;;459.63;360.80;;;;;;;;;;5054898;28;20512;-72
2022/05/17 11:37:44;;;;;;;466.70;406.77;;;;;;;;;;5053183;28;20481;-74
2022/05/17 11:40:38;;;;;;;463.47;408.30;;;;;;;;;;5061640;28;20519;-74
2022/05/17 11:46:09;;;;;;;454.90;360.23;;;;;;;;;;5056399;28;20532;-73
2022/05/17 11:49:02;;;;;;;501.70;448.80;;;;;;;;;;5060545;28;20459;-75
2022/05/17 11:51:40;;;;;;;525.67;471.97;;;;;;;;;;5053552;28;20446;-73
2022/05/17 11:54:22;;;;;;;518.07;464.53;;;;;;;;;;5058087;28;20912;-73
2022/05/17 11:56:53;;;;;;;545.57;491.67;;;;;;;;;;5061186;28;20507;-73
2022/05/17 11:59:41;;;;;;;548.37;494.20;;;;;;;;;;5063212;28;20461;-73
2022/05/17 12:02:10;;;;;;;538.30;484.47;;;;;;;;;;5054189;28;21390;-72
2022/05/17 12:04:49;;;;;;;557.27;503.07;;;;;;;;;;5059846;28;20531;-72
2022/05/17 12:07:42;;;;;;;546.63;493.03;;;;;;;;;;5054481;28;20538;-73
2022/05/17 12:10:32;;;;;;;496.83;444.57;;;;;;;;;;5065139;28;20457;-73
2022/05/17 12:13:17;;;;;;;515.73;462.33;;;;;;;;;;5062468;28;20461;-72
2022/05/17 12:15:49;;;;;;;528.07;474.33;;;;;;;;;;5065832;28;20905;-73
2022/05/17 12:18:34;;;;;;;567.30;512.67;;;;;;;;;;5052591;28;20572;-72
2022/05/17 12:21:15;;;;;;;591.13;536.33;;;;;;;;;;5056318;28;20472;-71
2022/05/17 12:23:56;;;;;;;536.63;483.13;;;;;;;;;;5058121;28;21132;-74
2022/05/17 12:26:28;;;;;;;582.03;526.33;;;;;;;;;;5060081;28;20888;-73
2022/05/17 12:32:01;;;;;;;549.43;495.73;;;;;;;;;;5055258;28;20429;-73
2022/05/17 12:34:32;;;;;;;549.23;495.57;;;;;;;;;;5056454;28;20898;-73
2022/05/17 12:37:11;;;;;;;478.17;426.23;;;;;;;;;;5059037;28;20916;-73
2022/05/17 12:45:31;;;;;;;491.53;438.90;;;;;;;;;;5059090;28;20820;-73
2022/05/17 12:48:04;;;;;;;499.87;446.93;;;;;;;;;;5068609;28;20524;-74
2022/05/17 12:50:41;;;;;;;536.13;482.40;;;;;;;;;;5060681;28;20555;-74
2022/05/17 12:53:13;;;;;;;577.30;522.60;;;;;;;;;;5061223;28;20915;-72
2022/05/17 12:55:46;;;;;;;526.17;472.60;;;;;;;;;;5063996;28;20874;-72
2022/05/17 12:58:16;;;;;;;568.93;515.03;;;;;;;;;;5059984;28;20875;-74
2022/05/17 13:00:53;;;;;;;487.13;434.87;;;;;;;;;;5052748;28;20523;-72
2022/05/17 13:03:25;;;;;;;490.13;438.00;;;;;;;;;;5052670;28;20457;-73
2022/05/17 13:05:58;;;;;;;459.37;402.50;;;;;;;;;;5062692;28;20758;-73
2022/05/17 13:08:27;;;;;;;531.97;479.30;;;;;;;;;;5065362;28;20469;-73
2022/05/17 13:11:00;;;;;;;544.87;492.17;;;;;;;;;;5063318;28;20449;-72
2022/05/17 13:13:28;;;;;;;515.53;462.93;;;;;;;;;;5072598;28;20484;-72
2022/05/17 13:18:49;;;;;;;488.10;436.07;;;;;;;;;;5056565;28;20682;-72
2022/05/17 13:21:37;;;;;;;523.10;470.50;;;;;;;;;;5069358;28;20519;-71
2022/05/17 13:24:08;;;;;;;543.03;489.83;;;;;;;;;;5068002;28;20448;-71
2022/05/17 13:26:43;;;;;;;530.43;477.53;;;;;;;;;;5069337;28;21094;-72
2022/05/17 13:29:17;;;;;;;504.43;451.60;;;;;;;;;;5056964;28;20495;-72
2022/05/17 13:32:19;;;;;;;519.40;466.07;;;;;;;;;;5057807;28;20644;-71
2022/05/17 13:35:04;;;;;;;536.33;482.63;;;;;;;;;;5067054;28;20472;-73
2022/05/17 13:37:34;;;;;;;559.00;504.37;;;;;;;;;;5059973;28;20491;-72
2022/05/17 13:40:10;;;;;;;613.93;558.33;;;;;;;;;;5071682;28;20468;-72
2022/05/17 13:42:51;;;;;;;591.47;536.33;;;;;;;;;;5064245;28;21045;-72
2022/05/17 13:45:30;;;;;;;527.80;474.30;;;;;;;;;;5063629;28;20487;-71
2022/05/17 13:48:15;;;;;;;546.10;491.77;;;;;;;;;;5056194;28;20459;-74
2022/05/17 13:50:42;;;;;;;557.20;503.60;;;;;;;;;;5056626;28;20944;-73
2022/05/17 13:53:11;;;;;;;595.50;540.23;;;;;;;;;;5064814;28;20444;-73
2022/05/17 13:55:42;;;;;;;579.50;525.87;;;;;;;;;;5068787;28;21114;-73
2022/05/17 13:58:11;;;;;;;8.20;7.07;;;;;;;;;;5064618;28;20508;-73
2022/05/17 14:00:43;;;;;;;605.13;573.07;;;;;;;;;;5059781;28;20479;-73
2022/05/17 14:03:20;;;;;;;6.83;4.30;;;;;;;;;;5060735;28;20887;-73
2022/05/17 14:06:02;;;;;;;5.03;3.90;;;;;;;;;;5059206;28;20594;-73
2022/05/17 14:14:15;;;;;;;5.33;4.83;;;;;;;;;;5057083;28;21105;-72
2022/05/17 14:16:51;;;;;;;4.83;3.73;;;;;;;;;;5068910;28;20460;-74
2022/05/17 14:19:23;;;;;;;539.37;489.83;;;;;;;;;;5067467;28;20480;-72
2022/05/17 14:21:56;;;;;;;4.80;3.90;;;;;;;;;;5068502;28;20461;-72
2022/05/17 14:24:25;;;;;;;4.70;3.80;;;;;;;;;;5056233;28;20810;-73
2022/05/17 14:27:02;;;;;;;492.83;442.23;;;;;;;;;;5056740;28;20465;-74
2022/05/17 14:29:34;;;;;;;4.90;3.83;;;;;;;;;;5065427;28;20759;-73
2022/05/17 14:32:03;;;;;;;4.67;3.93;;;;;;;;;;5070949;28;20469;-71
2022/05/17 14:34:33;;;;;;;5.90;4.40;;;;;;;;;;5066536;28;20467;-71
2022/05/17 14:37:04;;;;;;;442.77;389.80;;;;;;;;;;5064684;28;20474;-72
2022/05/17 14:39:33;;;;;;;5.10;3.60;;;;;;;;;;5066532;28;20923;-72
2022/05/17 14:42:26;;;;;;;6.90;4.10;;;;;;;;;;5068808;28;20471;-72
2022/05/17 14:45:00;;;;;;;5.20;4.10;;;;;;;;;;5058525;28;20461;-71
2022/05/17 14:47:29;;;;;;;5.50;4.30;;;;;;;;;;5067092;28;20474;-71
2022/05/17 14:50:07;;;;;;;4.03;3.60;;;;;;;;;;5058760;28;20472;-72
2022/05/17 14:52:40;;;;;;;4.90;4.10;;;;;;;;;;5060415;28;20488;-72
2022/05/17 14:55:11;;;;;;;6.33;4.70;;;;;;;;;;5061573;28;20453;-72
2022/05/17 14:57:43;;;;;;;8.07;7.27;;;;;;;;;;5057200;28;20545;-72
2022/05/17 15:00:19;;;;;;;10.57;4.23;;;;;;;;;;5066402;28;20456;-71
2022/05/17 15:02:58;;;;;;;5.17;4.30;;;;;;;;;;5060028;28;20480;-71
2022/05/17 15:05:33;;;;;;;6.40;4.20;;;;;;;;;;5067592;28;20460;-70